Time;durP1;ratioP1;P1;durP2;ratioP2;P2;SDS_P1;SDS_P2;PMS_P1;PMS_P2;Temp;Humidity;BMP_temperature;BMP_pressure;BME280_temperature;BME280_humidity;BME280_pressure;Samples;Min_cycle;Max_cycle;Signal;HPM_P1;HPM_P2
2021/06/17 00:00:23;;;;;;;1999.90;999.90;;;;;;;21.22;69.13;98453.97;5084620;28;20075;-66
2021/06/17 00:02:53;;;;;;;1999.90;999.90;;;;;;;21.38;68.43;98457.25;5088344;28;20093;-66
2021/06/17 00:05:20;;;;;;;1999.90;999.90;;;;;;;21.46;68.26;98456.06;5085681;28;20044;-65
2021/06/17 00:07:48;;;;;;;1999.90;999.90;;;;;;;21.46;68.59;98456.06;5084541;28;20061;-66
2021/06/17 00:10:29;;;;;;;1999.90;999.90;;;;;;;21.49;68.18;98459.31;5086224;28;20090;-66
2021/06/17 00:12:57;;;;;;;1999.90;999.90;;;;;;;20.92;70.57;98463.47;5083046;28;20391;-66
2021/06/17 00:15:25;;;;;;;1999.90;999.90;;;;;;;20.99;70.09;98466.31;5091199;28;20040;-66
2021/06/17 00:17:52;;;;;;;1999.90;999.90;;;;;;;21.07;69.83;98461.53;5090846;28;20048;-65
2021/06/17 00:20:20;;;;;;;1999.90;999.90;;;;;;;20.98;70.16;98461.88;5091567;28;20044;-66
2021/06/17 00:22:47;;;;;;;1999.90;999.90;;;;;;;20.78;70.81;98458.53;5091110;28;20109;-65
2021/06/17 00:25:15;;;;;;;1999.90;999.90;;;;;;;20.87;70.79;98466.63;5091562;28;20070;-66
2021/06/17 00:27:43;;;;;;;1999.90;999.90;;;;;;;20.80;70.84;98460.97;5089864;28;20515;-66
2021/06/17 00:30:11;;;;;;;1999.90;999.90;;;;;;;20.42;72.00;98461.06;5077413;28;20048;-66
2021/06/17 00:32:38;;;;;;;1999.90;999.90;;;;;;;20.17;72.84;98461.69;5093744;28;20105;-65
2021/06/17 00:35:06;;;;;;;1999.90;999.90;;;;;;;19.75;74.90;98450.81;5088596;28;20097;-65
2021/06/17 00:37:34;;;;;;;1999.90;999.90;;;;;;;19.62;75.28;98450.28;5077531;28;20080;-65
2021/06/17 00:40:03;;;;;;;1999.90;999.90;;;;;;;19.46;76.66;98454.13;5085351;28;20044;-65
2021/06/17 00:42:30;;;;;;;1999.90;999.90;;;;;;;19.97;74.22;98451.88;5092730;28;20469;-66
2021/06/17 00:44:56;;;;;;;1999.90;999.90;;;;;;;20.18;73.47;98454.88;5093487;28;20044;-65
2021/06/17 00:47:23;;;;;;;1999.90;999.90;;;;;;;20.66;71.60;98454.06;5086504;28;20102;-65
2021/06/17 00:49:50;;;;;;;1999.90;999.90;;;;;;;20.75;71.45;98448.91;5094336;28;20043;-65
2021/06/17 00:52:17;;;;;;;1999.90;999.90;;;;;;;20.69;71.36;98455.28;5091694;28;20048;-66
2021/06/17 00:54:44;;;;;;;1999.90;999.90;;;;;;;20.59;71.57;98463.22;5087450;28;20087;-66
2021/06/17 00:57:12;;;;;;;1999.90;999.90;;;;;;;20.70;71.50;98456.91;5096657;28;20044;-66
2021/06/17 00:59:39;;;;;;;1999.90;999.90;;;;;;;20.63;71.21;98468.06;5089654;28;20052;-66
2021/06/17 01:02:06;;;;;;;1999.90;999.90;;;;;;;20.48;71.81;98456.72;5094162;28;20121;-66
2021/06/17 01:04:34;;;;;;;1999.90;999.90;;;;;;;20.46;71.58;98452.69;5094616;28;20051;-66
2021/06/17 01:07:00;;;;;;;1999.90;999.90;;;;;;;20.55;71.67;98455.97;5093048;28;20433;-66
2021/06/17 01:09:30;;;;;;;1999.90;999.90;;;;;;;20.50;71.46;98450.69;5087961;28;20330;-65
2021/06/17 01:11:59;;;;;;;1999.90;999.90;;;;;;;20.11;72.95;98456.81;5090900;28;20051;-66
2021/06/17 01:14:32;;;;;;;1999.90;999.90;;;;;;;19.63;75.09;98449.88;5095050;28;20055;-65
2021/06/17 01:17:09;;;;;;;1999.90;999.90;;;;;;;19.45;75.94;98446.88;5081997;28;20425;-65
2021/06/17 01:19:53;;;;;;;1999.90;999.90;;;;;;;19.32;76.71;98451.97;5093745;28;20494;-65
2021/06/17 01:22:49;;;;;;;1999.90;999.90;;;;;;;19.58;75.90;98455.06;5087697;28;20089;-66
2021/06/17 01:25:30;;;;;;;1999.90;999.90;;;;;;;19.91;74.27;98445.81;5102347;28;20044;-66
2021/06/17 01:28:13;;;;;;;1999.90;999.90;;;;;;;20.11;73.69;98454.00;5082685;28;20052;-65
2021/06/17 01:30:54;;;;;;;1999.90;999.90;;;;;;;20.13;73.09;98446.00;5087979;28;20294;-65
2021/06/17 01:33:24;;;;;;;1999.90;999.90;;;;;;;20.06;73.61;98450.34;5094337;28;20371;-65
2021/06/17 01:35:53;;;;;;;1999.90;999.90;;;;;;;20.12;73.42;98452.81;5080321;28;21014;-65
2021/06/17 01:38:23;;;;;;;1999.90;999.90;;;;;;;20.28;72.41;98444.94;5094774;28;20052;-65
2021/06/17 01:40:52;;;;;;;1999.90;999.90;;;;;;;20.38;71.72;98441.41;5091350;28;20387;-65
2021/06/17 01:43:19;;;;;;;1999.90;999.90;;;;;;;20.20;72.60;98434.81;5089387;28;20424;-65
2021/06/17 01:45:48;;;;;;;1999.90;999.90;;;;;;;19.83;74.41;98444.09;5095689;28;20066;-65
2021/06/17 01:48:16;;;;;;;1999.90;999.90;;;;;;;19.35;76.73;98444.75;5088690;28;20099;-65
2021/06/17 01:50:48;;;;;;;1999.90;999.90;;;;;;;19.11;77.76;98446.88;5083641;28;20043;-65
2021/06/17 01:53:17;;;;;;;1999.90;999.90;;;;;;;19.06;78.11;98438.03;5084959;28;20048;-65
2021/06/17 01:55:45;;;;;;;1999.90;999.90;;;;;;;19.16;78.11;98435.34;5087180;28;20048;-65
2021/06/17 01:58:15;;;;;;;1999.90;999.90;;;;;;;19.33;76.79;98435.94;5086669;28;20435;-65
2021/06/17 02:00:44;;;;;;;1999.90;999.90;;;;;;;19.60;76.29;98435.84;5092978;28;20125;-65
2021/06/17 02:03:12;;;;;;;1999.90;999.90;;;;;;;19.89;74.53;98436.97;5084685;28;20085;-66
2021/06/17 02:05:39;;;;;;;1999.90;999.90;;;;;;;19.85;74.79;98436.94;5084392;28;20073;-65
2021/06/17 02:08:08;;;;;;;1999.90;999.90;;;;;;;19.34;76.67;98434.75;5095081;28;20052;-65
2021/06/17 02:10:38;;;;;;;1999.90;999.90;;;;;;;19.16;78.06;98440.16;5093461;28;20044;-65
2021/06/17 02:13:09;;;;;;;1999.90;999.90;;;;;;;19.27;77.16;98434.69;5089644;28;20048;-66
2021/06/17 02:15:37;;;;;;;1999.90;999.90;;;;;;;19.70;75.47;98433.13;5086173;28;20433;-66
2021/06/17 02:18:05;;;;;;;1999.90;999.90;;;;;;;19.71;75.55;98437.56;5091194;28;20139;-65
2021/06/17 02:20:32;;;;;;;1999.90;999.90;;;;;;;19.91;74.89;98440.19;5086330;28;20117;-65
2021/06/17 02:23:04;;;;;;;1999.90;999.90;;;;;;;19.77;75.15;98443.66;5078865;28;20048;-65
2021/06/17 02:25:33;;;;;;;1999.90;999.90;;;;;;;19.30;76.44;98440.31;5081135;28;20105;-65
2021/06/17 02:28:07;;;;;;;1999.90;999.90;;;;;;;18.89;78.82;98431.81;5087335;28;20101;-66
2021/06/17 02:30:36;;;;;;;1999.90;999.90;;;;;;;19.34;77.07;98440.38;5092507;28;20048;-66
2021/06/17 02:33:08;;;;;;;1999.90;999.90;;;;;;;19.60;76.15;98444.25;5094776;28;20060;-63
2021/06/17 02:35:37;;;;;;;1999.90;999.90;;;;;;;19.59;76.17;98435.03;5091913;28;20048;-63
2021/06/17 02:38:07;;;;;;;1999.90;999.90;;;;;;;18.68;79.74;98435.06;5086717;28;20040;-64
2021/06/17 02:40:40;;;;;;;1999.90;999.90;;;;;;;18.67;80.63;98444.66;5087465;28;20098;-64
2021/06/17 02:43:11;;;;;;;1999.90;999.90;;;;;;;18.81;80.35;98436.44;5085416;28;20342;-64
2021/06/17 02:45:39;;;;;;;1999.90;999.90;;;;;;;18.65;80.39;98445.03;5083239;28;20097;-64
2021/06/17 02:48:06;;;;;;;1999.90;999.90;;;;;;;18.77;80.46;98440.38;5079052;28;20052;-64
2021/06/17 02:50:33;;;;;;;1999.90;999.90;;;;;;;18.74;80.95;98447.56;5084194;28;20349;-65
2021/06/17 02:52:59;;;;;;;1999.90;999.90;;;;;;;19.25;78.62;98448.25;5087340;28;20085;-64
2021/06/17 02:55:26;;;;;;;1999.90;999.90;;;;;;;19.30;77.94;98445.91;5084878;28;20044;-64
2021/06/17 02:58:14;;;;;;;1999.90;999.90;;;;;;;19.66;76.76;98446.31;5092706;28;20113;-64
2021/06/17 03:00:48;;;;;;;1999.90;999.90;;;;;;;19.74;76.16;98437.97;5090117;28;20044;-65
2021/06/17 03:03:46;;;;;;;1999.90;999.90;;;;;;;19.31;77.67;98447.53;5084239;28;20076;-64
2021/06/17 03:06:29;;;;;;;1999.90;999.90;;;;;;;18.72;80.30;98446.31;5087078;28;20118;-64
2021/06/17 03:08:59;;;;;;;1999.90;999.90;;;;;;;18.79;80.52;98435.22;5091948;28;20080;-64
2021/06/17 03:11:31;;;;;;;1999.90;999.90;;;;;;;18.19;83.48;98438.69;5089117;28;20070;-64
2021/06/17 03:14:09;;;;;;;1999.90;999.90;;;;;;;18.75;81.45;98435.16;5078495;28;20048;-64
2021/06/17 03:16:37;;;;;;;1999.90;999.90;;;;;;;18.29;83.45;98438.06;5080231;28;20048;-64
2021/06/17 03:19:06;;;;;;;1999.90;999.90;;;;;;;18.62;82.05;98433.78;5086116;28;20483;-64
2021/06/17 03:21:39;;;;;;;1999.90;999.90;;;;;;;18.94;80.79;98439.06;5079048;28;20087;-64
2021/06/17 03:24:08;;;;;;;1999.90;999.90;;;;;;;18.73;81.94;98445.16;5078231;28;20061;-64
2021/06/17 03:26:38;;;;;;;1999.90;999.90;;;;;;;18.36;83.42;98435.38;5092477;28;20093;-64
2021/06/17 03:29:07;;;;;;;1999.90;999.90;;;;;;;18.65;82.39;98436.63;5092086;28;20044;-64
2021/06/17 03:31:35;;;;;;;1999.90;999.90;;;;;;;19.07;80.48;98436.81;5076238;28;20086;-64
2021/06/17 03:34:03;;;;;;;1999.90;999.90;;;;;;;19.32;79.53;98437.13;5091046;28;20078;-64
2021/06/17 03:36:32;;;;;;;1999.90;999.90;;;;;;;19.86;77.58;98437.75;5086540;28;20117;-64
2021/06/17 03:39:00;;;;;;;1999.90;999.90;;;;;;;20.39;74.94;98442.19;5081252;28;20074;-64
2021/06/17 03:41:29;;;;;;;1999.90;999.90;;;;;;;20.89;72.82;98444.56;5085861;28;20040;-64
2021/06/17 03:43:56;;;;;;;1999.90;999.90;;;;;;;21.23;71.60;98438.72;5084923;28;20112;-65
2021/06/17 03:46:24;;;;;;;1999.90;999.90;;;;;;;21.60;69.80;98441.28;5076537;28;20097;-64
2021/06/17 03:48:53;;;;;;;1999.90;999.90;;;;;;;21.70;68.95;98444.53;5093753;28;20052;-64
2021/06/17 03:51:20;;;;;;;1999.90;999.90;;;;;;;21.86;68.50;98444.94;5091870;28;20485;-64
2021/06/17 03:53:47;;;;;;;1999.90;999.90;;;;;;;21.76;69.01;98438.09;5081289;28;20399;-64
2021/06/17 03:56:15;;;;;;;1999.90;999.90;;;;;;;21.71;69.01;98437.69;5093780;28;20094;-64
2021/06/17 03:58:43;;;;;;;1999.90;999.90;;;;;;;21.40;69.43;98437.97;5087205;28;20159;-64
2021/06/17 04:01:11;;;;;;;1999.90;999.90;;;;;;;21.29;69.96;98448.38;5074103;28;20060;-63
2021/06/17 04:03:38;;;;;;;1999.90;999.90;;;;;;;21.84;68.69;98438.94;5084992;28;20048;-64
2021/06/17 04:06:08;;;;;;;1999.90;999.90;;;;;;;22.16;67.85;98446.59;5092197;28;20051;-64
2021/06/17 04:08:42;;;;;;;1999.90;999.90;;;;;;;22.64;66.34;98445.38;5081317;28;20048;-64
2021/06/17 04:11:09;;;;;;;1999.90;999.90;;;;;;;22.21;67.20;98442.56;5095961;28;20093;-64
2021/06/17 04:13:40;;;;;;;1999.90;999.90;;;;;;;22.10;67.82;98451.81;5089299;28;20387;-64
2021/06/17 04:16:12;;;;;;;1999.90;999.90;;;;;;;21.70;68.30;98448.13;5082927;28;20392;-64
2021/06/17 04:18:42;;;;;;;1999.90;999.90;;;;;;;22.47;66.87;98453.47;5095054;28;20062;-64
2021/06/17 04:21:10;;;;;;;1999.90;999.90;;;;;;;22.37;67.69;98447.84;5095643;28;20425;-64
2021/06/17 04:23:38;;;;;;;1999.90;999.90;;;;;;;22.73;66.00;98448.59;5089852;28;20043;-64
2021/06/17 04:26:07;;;;;;;1999.90;999.90;;;;;;;22.40;66.00;98447.03;5089348;28;20064;-64
2021/06/17 04:28:34;;;;;;;1999.90;999.90;;;;;;;21.92;67.99;98453.81;5093397;28;20164;-64
2021/06/17 04:31:02;;;;;;;1999.90;999.90;;;;;;;21.66;69.44;98450.16;5097326;28;20108;-64
2021/06/17 04:33:30;;;;;;;1999.90;999.90;;;;;;;21.57;69.88;98458.13;5078011;28;20048;-64
2021/06/17 04:35:59;;;;;;;1999.90;999.90;;;;;;;22.01;68.13;98447.81;5084090;28;20098;-64
2021/06/17 04:38:27;;;;;;;1999.90;999.90;;;;;;;22.56;66.28;98455.88;5084684;28;20073;-65
2021/06/17 04:40:54;;;;;;;1999.90;999.90;;;;;;;22.96;65.12;98465.06;5076125;28;20118;-65
2021/06/17 04:43:22;;;;;;;1999.90;999.90;;;;;;;22.89;65.04;98464.28;5096601;28;20093;-65
2021/06/17 04:45:51;;;;;;;1999.90;999.90;;;;;;;23.23;65.95;98463.81;5093477;28;20098;-66
2021/06/17 04:48:21;;;;;;;1999.90;999.90;;;;;;;23.26;65.36;98465.81;5096009;28;20048;-64
2021/06/17 04:50:48;;;;;;;1999.90;999.90;;;;;;;23.49;65.14;98473.78;5087061;28;20049;-66
2021/06/17 04:53:17;;;;;;;1999.90;999.90;;;;;;;24.13;63.75;98472.66;5091757;28;20048;-66
2021/06/17 04:55:46;;;;;;;1999.90;999.90;;;;;;;24.38;61.45;98475.25;5078501;28;20089;-66
2021/06/17 04:58:13;;;;;;;1999.90;999.90;;;;;;;24.43;61.55;98476.84;5095409;28;20044;-66
2021/06/17 05:00:40;;;;;;;1999.90;999.90;;;;;;;24.49;61.26;98474.34;5090974;28;20101;-66
2021/06/17 05:03:07;;;;;;;1999.90;999.90;;;;;;;24.67;62.29;98477.06;5092575;28;20044;-65
2021/06/17 05:05:34;;;;;;;1999.90;999.90;;;;;;;25.02;60.26;98472.28;5094671;28;20115;-66
2021/06/17 05:13:21;;;;;;;;;;;;;;;25.58;58.11;98475.69;5094148;28;20176;-65
2021/06/17 05:15:48;;;;;;;1999.90;999.90;;;;;;;25.76;57.45;98481.09;5086148;28;19973;-65
2021/06/17 05:18:19;;;;;;;1999.90;999.90;;;;;;;25.95;56.61;98487.34;5085664;28;20040;-65
2021/06/17 05:20:46;;;;;;;1999.90;999.90;;;;;;;25.67;55.15;98478.78;5084934;28;20098;-65
2021/06/17 05:23:16;;;;;;;1999.90;999.90;;;;;;;25.73;54.81;98472.66;5090715;28;20372;-65
2021/06/17 05:25:43;;;;;;;1999.90;999.90;;;;;;;25.75;54.08;98476.66;5087054;28;20437;-65
2021/06/17 05:28:14;;;;;;;1999.90;999.90;;;;;;;25.36;56.19;98485.66;5078589;28;20502;-65
2021/06/17 05:30:42;;;;;;;1999.90;999.90;;;;;;;25.80;54.62;98486.75;5095229;28;20064;-65
2021/06/17 05:33:09;;;;;;;1999.90;999.90;;;;;;;25.35;54.93;98482.03;5090444;28;20066;-65
2021/06/17 05:35:36;;;;;;;1999.90;999.90;;;;;;;25.24;56.50;98489.81;5093981;28;20045;-65
2021/06/17 05:38:04;;;;;;;1999.90;999.90;;;;;;;25.66;55.23;98499.03;5084036;28;20102;-65
2021/06/17 05:40:32;;;;;;;1999.90;999.90;;;;;;;25.19;54.80;98493.91;5091656;28;20440;-65
2021/06/17 05:42:58;;;;;;;1999.90;999.90;;;;;;;25.18;54.84;98492.31;5091001;28;20420;-65
2021/06/17 05:45:26;;;;;;;1999.90;999.90;;;;;;;25.10;56.33;98488.75;5081816;28;20105;-65
2021/06/17 05:47:52;;;;;;;1999.90;999.90;;;;;;;25.83;54.78;98500.03;5104293;28;20040;-66
2021/06/17 05:50:19;;;;;;;1999.90;999.90;;;;;;;26.24;54.15;98501.88;5092031;28;20040;-67
2021/06/17 05:52:46;;;;;;;1999.90;999.90;;;;;;;25.82;53.50;98498.44;5082568;28;20056;-64
2021/06/17 05:55:13;;;;;;;1999.90;999.90;;;;;;;25.36;55.24;98499.81;5089344;28;20047;-66
2021/06/17 05:57:40;;;;;;;1999.90;999.90;;;;;;;25.40;54.35;98504.22;5090394;28;20399;-65
2021/06/17 06:00:09;;;;;;;1999.90;999.90;;;;;;;25.29;54.49;98503.50;5093842;28;20097;-65
2021/06/17 06:02:36;;;;;;;1999.90;999.90;;;;;;;24.98;54.72;98505.44;5087737;28;20486;-65
2021/06/17 06:05:04;;;;;;;1999.90;999.90;;;;;;;25.31;55.64;98501.09;5094774;28;20043;-64
2021/06/17 06:07:31;;;;;;;1999.90;999.90;;;;;;;25.71;54.88;98500.59;5078729;28;20082;-66
2021/06/17 06:09:57;;;;;;;1999.90;999.90;;;;;;;25.97;54.51;98508.31;5089464;28;20387;-66
2021/06/17 06:12:24;;;;;;;1999.90;999.90;;;;;;;26.21;52.40;98511.25;5086168;28;20052;-65
2021/06/17 06:14:51;;;;;;;1999.90;999.90;;;;;;;25.92;53.33;98511.63;5079258;28;20445;-65
2021/06/17 06:17:18;;;;;;;1999.90;999.90;;;;;;;26.16;52.58;98518.19;5090307;28;20048;-65
2021/06/17 06:19:44;;;;;;;1999.90;999.90;;;;;;;26.54;51.97;98506.69;5084087;28;20055;-65
2021/06/17 06:22:11;;;;;;;1999.90;999.90;;;;;;;26.51;52.15;98516.06;5089932;28;20105;-65
2021/06/17 06:24:38;;;;;;;1999.90;999.90;;;;;;;26.96;52.16;98512.06;5092866;28;20112;-65
2021/06/17 06:27:06;;;;;;;1999.90;999.90;;;;;;;27.11;51.29;98509.78;5093229;28;20357;-65
2021/06/17 06:29:34;;;;;;;1999.90;999.90;;;;;;;27.15;51.26;98515.38;5077693;28;20122;-66
2021/06/17 06:32:01;;;;;;;1999.90;999.90;;;;;;;26.38;52.19;98519.91;5093370;28;20269;-65
2021/06/17 06:34:28;;;;;;;1999.90;999.90;;;;;;;26.22;53.50;98512.84;5091470;28;20100;-65
2021/06/17 06:36:54;;;;;;;1999.90;999.90;;;;;;;26.19;53.07;98517.34;5081190;28;20085;-65
2021/06/17 06:39:21;;;;;;;1999.90;999.90;;;;;;;26.34;53.70;98511.47;5085035;28;20044;-65
2021/06/17 06:41:48;;;;;;;1999.90;999.90;;;;;;;26.77;51.96;98510.78;5083106;28;20055;-66
2021/06/17 06:44:15;;;;;;;1999.90;999.90;;;;;;;27.47;50.73;98525.34;5080238;28;20075;-65
2021/06/17 06:46:42;;;;;;;1999.90;999.90;;;;;;;27.59;50.03;98528.31;5083252;28;20074;-65
2021/06/17 06:49:09;;;;;;;1999.90;999.90;;;;;;;27.30;50.26;98522.38;5088584;28;20489;-65
2021/06/17 06:51:39;;;;;;;1999.90;999.90;;;;;;;27.46;50.99;98520.91;5088765;28;20121;-65
2021/06/17 06:54:07;;;;;;;1999.90;999.90;;;;;;;26.21;52.93;98531.09;5094022;28;20048;-65
2021/06/17 06:56:38;;;;;;;1999.90;999.90;;;;;;;26.63;52.16;98526.00;5090312;28;20048;-65
2021/06/17 06:59:05;;;;;;;1999.90;999.90;;;;;;;27.24;51.51;98527.78;5075779;28;20421;-65
2021/06/17 07:01:37;;;;;;;1999.90;999.90;;;;;;;27.37;50.27;98533.63;5093880;28;20121;-65
2021/06/17 07:04:05;;;;;;;1999.90;999.90;;;;;;;28.41;49.54;98530.59;5086225;28;20083;-65
2021/06/17 07:06:33;;;;;;;1999.90;999.90;;;;;;;28.58;47.68;98531.44;5088208;28;20147;-65
2021/06/17 07:09:00;;;;;;;1999.90;999.90;;;;;;;28.66;48.18;98534.91;5085014;28;20384;-65
2021/06/17 07:11:26;;;;;;;1999.90;999.90;;;;;;;29.20;46.99;98532.72;5083616;28;20105;-65
2021/06/17 07:13:53;;;;;;;1999.90;999.90;;;;;;;29.66;46.06;98539.19;5091998;28;20101;-65
2021/06/17 07:16:20;;;;;;;1999.90;999.90;;;;;;;29.47;45.10;98536.03;5093428;28;20056;-65
2021/06/17 07:18:47;;;;;;;1999.90;999.90;;;;;;;29.02;46.82;98534.00;5087417;28;20048;-65
2021/06/17 07:21:15;;;;;;;1999.90;999.90;;;;;;;29.65;45.80;98540.44;5077398;28;20101;-65
2021/06/17 07:23:49;;;;;;;1999.90;999.90;;;;;;;29.92;45.60;98542.13;5093677;28;20047;-65
2021/06/17 07:26:21;;;;;;;1999.90;999.90;;;;;;;29.48;46.00;98543.34;5086673;28;20048;-65
2021/06/17 07:28:48;;;;;;;1999.90;999.90;;;;;;;29.54;44.72;98539.94;5085328;28;20102;-65
2021/06/17 07:31:15;;;;;;;1999.90;999.90;;;;;;;29.87;45.49;98542.72;5086072;28;20044;-65
2021/06/17 07:33:42;;;;;;;1999.90;999.90;;;;;;;30.42;44.19;98545.53;5091438;28;20348;-65
2021/06/17 07:36:12;;;;;;;1999.90;999.90;;;;;;;30.30;44.18;98547.88;5086430;28;20142;-65
2021/06/17 07:38:39;;;;;;;1999.90;999.90;;;;;;;30.88;42.13;98555.41;5078114;28;20052;-65
2021/06/17 07:41:05;;;;;;;1999.90;999.90;;;;;;;30.45;41.79;98559.66;5091632;28;20052;-65
2021/06/17 07:43:33;;;;;;;1999.90;999.90;;;;;;;30.08;43.15;98562.00;5089850;28;20052;-65
2021/06/17 07:46:02;;;;;;;1999.90;999.90;;;;;;;30.47;41.50;98562.84;5087453;28;20070;-65
2021/06/17 07:48:28;;;;;;;1999.90;999.90;;;;;;;30.57;42.24;98562.97;5083203;28;20040;-65
2021/06/17 07:50:55;;;;;;;1999.90;999.90;;;;;;;30.59;42.74;98563.31;5083700;28;20070;-65
2021/06/17 07:53:22;;;;;;;1999.90;999.90;;;;;;;30.60;43.95;98560.00;5089824;28;20384;-65
2021/06/17 07:55:49;;;;;;;1999.90;999.90;;;;;;;30.77;39.84;98563.50;5101354;28;20387;-65
2021/06/17 07:58:16;;;;;;;1999.90;999.90;;;;;;;30.12;42.05;98562.69;5084663;28;20036;-65
2021/06/17 08:00:42;;;;;;;1999.90;999.90;;;;;;;30.37;41.04;98579.03;5083992;28;20067;-65
2021/06/17 08:03:09;;;;;;;1999.90;999.90;;;;;;;30.27;42.05;98579.38;5092866;28;20266;-65
2021/06/17 08:05:36;;;;;;;1999.90;999.90;;;;;;;30.71;40.67;98574.72;5091094;28;20044;-65
2021/06/17 08:08:03;;;;;;;1999.90;999.90;;;;;;;30.87;39.67;98581.53;5075013;28;20101;-65
2021/06/17 08:10:30;;;;;;;1999.90;999.90;;;;;;;31.32;37.61;98577.56;5092413;28;20052;-65
2021/06/17 08:12:56;;;;;;;1999.90;999.90;;;;;;;31.18;40.21;98581.75;5089936;28;20109;-65
2021/06/17 08:15:23;;;;;;;1999.90;999.90;;;;;;;31.12;39.52;98589.28;5088221;28;20078;-65
2021/06/17 08:17:53;;;;;;;1999.90;999.90;;;;;;;31.28;36.97;98585.50;5093170;28;20048;-65
2021/06/17 08:20:20;;;;;;;1999.90;999.90;;;;;;;31.34;36.76;98585.69;5090501;28;20048;-64
2021/06/17 08:22:47;;;;;;;1999.90;999.90;;;;;;;31.80;37.38;98591.84;5074098;28;20399;-65
2021/06/17 08:25:14;;;;;;;1999.90;999.90;;;;;;;31.25;38.62;98595.78;5087578;28;20048;-65
2021/06/17 08:27:41;;;;;;;1999.90;999.90;;;;;;;31.81;36.38;98601.19;5086451;28;20048;-65
2021/06/17 08:30:11;;;;;;;1999.90;999.90;;;;;;;31.35;38.32;98593.81;5080588;28;20429;-65
2021/06/17 08:32:38;;;;;;;1999.90;999.90;;;;;;;31.89;37.55;98583.31;5079642;28;20431;-65
2021/06/17 08:35:06;;;;;;;1999.90;999.90;;;;;;;31.31;37.78;98589.47;5086655;28;20113;-65
2021/06/17 08:37:34;;;;;;;1999.90;999.90;;;;;;;31.07;38.01;98593.53;5090844;28;20063;-65
2021/06/17 08:40:01;;;;;;;1999.90;999.90;;;;;;;31.52;37.67;98593.66;5080838;28;20087;-65
2021/06/17 08:42:29;;;;;;;1999.90;999.90;;;;;;;31.99;36.52;98589.09;5087362;28;20127;-65
2021/06/17 08:44:57;;;;;;;1999.90;999.90;;;;;;;32.11;35.68;98591.09;5082761;28;20094;-65
2021/06/17 08:47:25;;;;;;;1999.90;999.90;;;;;;;31.37;36.32;98590.50;5086046;28;20477;-65
2021/06/17 08:49:54;;;;;;;1999.90;999.90;;;;;;;31.75;35.23;98590.34;5093549;28;20052;-65
2021/06/17 08:52:22;;;;;;;1999.90;999.90;;;;;;;32.41;36.86;98585.84;5085747;28;20052;-65
2021/06/17 08:54:49;;;;;;;1999.90;999.90;;;;;;;32.84;35.25;98589.84;5079031;28;20109;-65
2021/06/17 08:57:16;;;;;;;1999.90;999.90;;;;;;;33.11;34.31;98585.47;5093581;28;20040;-65
2021/06/17 08:59:45;;;;;;;1999.90;999.90;;;;;;;32.40;35.28;98592.84;5092230;28;20123;-65
2021/06/17 09:02:12;;;;;;;1999.90;999.90;;;;;;;32.87;34.40;98588.94;5093064;28;20441;-66
2021/06/17 09:04:39;;;;;;;1999.90;999.90;;;;;;;32.32;34.39;98589.50;5087071;28;20441;-66
2021/06/17 09:07:13;;;;;;;1999.90;999.90;;;;;;;32.65;34.83;98595.50;5092409;28;20674;-65
2021/06/17 09:09:41;;;;;;;1999.90;999.90;;;;;;;32.97;34.70;98590.53;5094833;28;20045;-66
2021/06/17 09:12:15;;;;;;;1999.90;999.90;;;;;;;33.81;33.57;98596.38;5095526;28;20097;-66
2021/06/17 09:15:00;;;;;;;1999.90;999.90;;;;;;;32.54;32.89;98594.34;5088334;28;20043;-66
2021/06/17 09:17:27;;;;;;;1999.90;999.90;;;;;;;32.41;33.16;98592.38;5081382;28;20136;-66
2021/06/17 09:19:54;;;;;;;1999.90;999.90;;;;;;;33.61;37.00;98583.31;5096012;28;20044;-66
2021/06/17 09:22:22;;;;;;;1999.90;999.90;;;;;;;33.67;32.04;98583.47;5093153;28;20048;-66
2021/06/17 09:24:51;;;;;;;1999.90;999.90;;;;;;;33.66;31.35;98581.88;5081694;28;20048;-65
2021/06/17 09:27:40;;;;;;;1999.90;999.90;;;;;;;34.08;30.38;98580.41;5083995;28;20056;-65
2021/06/17 09:30:10;;;;;;;1999.90;999.90;;;;;;;33.69;31.25;98584.59;5093419;28;20452;-65
2021/06/17 09:32:38;;;;;;;1999.90;999.90;;;;;;;33.43;32.67;98577.59;5094229;28;20047;-66
2021/06/17 09:35:16;;;;;;;1999.90;999.90;;;;;;;33.88;32.42;98567.38;5093954;28;20113;-66
2021/06/17 09:37:44;;;;;;;1999.90;999.90;;;;;;;33.95;33.11;98572.81;5083594;28;20090;-66
2021/06/17 09:40:35;;;;;;;1999.90;999.90;;;;;;;34.04;32.92;98575.66;5090838;28;20136;-67
2021/06/17 09:43:24;;;;;;;1999.90;999.90;;;;;;;34.48;31.59;98582.22;5082942;28;20121;-67
2021/06/17 09:46:09;;;;;;;1999.90;999.90;;;;;;;33.23;33.85;98583.78;5082104;28;20458;-66
2021/06/17 09:48:44;;;;;;;1999.90;999.90;;;;;;;33.70;38.63;98573.91;5085296;28;20041;-66
2021/06/17 09:51:35;;;;;;;1999.90;999.90;;;;;;;34.26;32.27;98585.38;5087969;28;20505;-64
2021/06/17 09:54:08;;;;;;;;;;;;;;;34.12;32.41;98584.72;5083391;28;20454;-66
2021/06/17 09:56:36;;;;;;;1999.90;999.90;;;;;;;32.89;33.78;98577.81;5089866;28;19924;-66
2021/06/17 09:59:05;;;;;;;1999.90;999.90;;;;;;;33.84;33.03;98579.03;5084797;28;20499;-66
2021/06/17 10:01:41;;;;;;;1999.90;999.90;;;;;;;34.11;31.96;98585.19;5082886;28;20112;-66
2021/06/17 10:04:14;;;;;;;1999.90;999.90;;;;;;;33.77;33.44;98578.56;5078799;28;20074;-66
2021/06/17 10:06:42;;;;;;;1999.90;999.90;;;;;;;34.25;33.36;98573.03;5094772;28;20109;-66
2021/06/17 10:09:11;;;;;;;1999.90;999.90;;;;;;;33.88;34.37;98564.53;5094328;28;20039;-66
2021/06/17 10:11:41;;;;;;;1999.90;999.90;;;;;;;33.29;34.68;98568.34;5076779;28;20444;-66
2021/06/17 10:14:08;;;;;;;1999.90;999.90;;;;;;;33.10;36.09;98560.97;5088813;28;20101;-66
2021/06/17 10:16:40;;;;;;;1999.90;999.90;;;;;;;33.37;36.42;98568.03;5086685;28;20040;-65
2021/06/17 10:19:07;;;;;;;1999.90;999.90;;;;;;;33.22;34.51;98568.66;5078374;28;20078;-66
2021/06/17 10:21:34;;;;;;;1999.90;999.90;;;;;;;34.12;32.15;98569.56;5095769;28;20048;-66
2021/06/17 10:24:13;;;;;;;1999.90;999.90;;;;;;;34.00;34.39;98562.75;5093056;28;20131;-66
2021/06/17 10:26:46;;;;;;;1999.90;999.90;;;;;;;34.69;33.10;98574.69;5088663;28;20047;-66
2021/06/17 10:29:28;;;;;;;1999.90;999.90;;;;;;;34.84;31.25;98578.44;5094818;28;20177;-66
2021/06/17 10:31:56;;;;;;;1999.90;999.90;;;;;;;35.01;32.26;98570.19;5093464;28;20048;-66
2021/06/17 10:34:26;;;;;;;1999.90;999.90;;;;;;;35.04;30.47;98574.97;5088861;28;20064;-66
2021/06/17 10:37:10;;;;;;;1999.90;999.90;;;;;;;35.46;30.60;98579.00;5083367;28;20110;-66
2021/06/17 10:39:38;;;;;;;1999.90;999.90;;;;;;;35.16;31.25;98575.22;5081741;28;20044;-66
2021/06/17 10:42:05;;;;;;;1999.90;999.90;;;;;;;36.00;28.69;98572.47;5093365;28;20048;-66
2021/06/17 10:44:44;;;;;;;1999.90;999.90;;;;;;;35.21;30.31;98560.16;5092910;28;20094;-66
2021/06/17 10:47:49;;;;;;;1999.90;999.90;;;;;;;34.67;34.76;98557.13;5079975;28;20364;-66
2021/06/17 10:50:18;;;;;;;1999.90;999.90;;;;;;;33.34;34.65;98553.38;5093773;28;20392;-66
2021/06/17 10:52:46;;;;;;;1999.90;999.90;;;;;;;31.31;36.94;98552.34;5093606;28;20086;-66
2021/06/17 10:55:18;;;;;;;1999.90;999.90;;;;;;;32.03;36.46;98549.72;5077199;28;20493;-65
2021/06/17 11:00:28;;;;;;;1999.90;999.90;;;;;;;33.18;34.70;98547.94;5086446;28;20037;-66
2021/06/17 11:03:17;;;;;;;1999.90;999.90;;;;;;;34.50;34.27;98542.38;5082932;28;20047;-66
2021/06/17 11:05:47;;;;;;;1999.90;999.90;;;;;;;34.88;32.00;98544.59;5082264;28;20399;-66
2021/06/17 11:08:14;;;;;;;1999.90;999.90;;;;;;;34.59;34.26;98541.56;5086169;28;20056;-66
2021/06/17 11:10:48;;;;;;;1999.90;999.90;;;;;;;34.23;32.64;98535.44;5083574;28;20306;-66
2021/06/17 11:13:38;;;;;;;1999.90;999.90;;;;;;;35.38;32.04;98546.97;5091205;28;20105;-66